sensor_id;sensor_type;location;lat;lon;timestamp;P1;durP1;ratioP1;P2;durP2;ratioP2
8050;SDS011;4068;42.158;24.732;2023-08-21T00:01:40;8.52;;;6.82;;
8050;SDS011;4068;42.158;24.732;2023-08-21T00:04:05;8.82;;;6.32;;
8050;SDS011;4068;42.158;24.732;2023-08-21T00:06:31;8.98;;;6.78;;
8050;SDS011;4068;42.158;24.732;2023-08-21T00:08:56;8.60;;;6.75;;
8050;SDS011;4068;42.158;24.732;2023-08-21T00:11:22;11.57;;;6.90;;
8050;SDS011;4068;42.158;24.732;2023-08-21T00:13:47;11.57;;;7.18;;
8050;SDS011;4068;42.158;24.732;2023-08-21T00:16:14;9.60;;;6.75;;
8050;SDS011;4068;42.158;24.732;2023-08-21T00:18:41;8.98;;;6.55;;
8050;SDS011;4068;42.158;24.732;2023-08-21T00:21:06;10.35;;;6.35;;
8050;SDS011;4068;42.158;24.732;2023-08-21T00:23:32;9.52;;;6.18;;
8050;SDS011;4068;42.158;24.732;2023-08-21T00:25:57;7.55;;;6.45;;
8050;SDS011;4068;42.158;24.732;2023-08-21T00:28:23;8.40;;;6.38;;
8050;SDS011;4068;42.158;24.732;2023-08-21T00:30:48;10.63;;;6.60;;
8050;SDS011;4068;42.158;24.732;2023-08-21T00:33:13;7.90;;;6.60;;
8050;SDS011;4068;42.158;24.732;2023-08-21T00:35:39;11.48;;;6.50;;
8050;SDS011;4068;42.158;24.732;2023-08-21T00:38:04;11.30;;;6.90;;
8050;SDS011;4068;42.158;24.732;2023-08-21T00:40:30;7.75;;;6.68;;
8050;SDS011;4068;42.158;24.732;2023-08-21T00:42:56;8.02;;;6.50;;
8050;SDS011;4068;42.158;24.732;2023-08-21T00:45:22;9.88;;;6.40;;
8050;SDS011;4068;42.158;24.732;2023-08-21T00:47:47;8.95;;;6.47;;
8050;SDS011;4068;42.158;24.732;2023-08-21T00:50:13;9.77;;;6.90;;
8050;SDS011;4068;42.158;24.732;2023-08-21T00:52:40;12.02;;;7.32;;
8050;SDS011;4068;42.158;24.732;2023-08-21T00:55:09;8.25;;;6.80;;
8050;SDS011;4068;42.158;24.732;2023-08-21T00:57:35;10.98;;;7.13;;
8050;SDS011;4068;42.158;24.732;2023-08-21T01:00:02;9.20;;;6.97;;
8050;SDS011;4068;42.158;24.732;2023-08-21T01:02:29;8.75;;;6.53;;
8050;SDS011;4068;42.158;24.732;2023-08-21T01:04:55;10.20;;;6.60;;
8050;SDS011;4068;42.158;24.732;2023-08-21T01:07:20;9.40;;;7.15;;
8050;SDS011;4068;42.158;24.732;2023-08-21T01:09:49;10.38;;;6.35;;
8050;SDS011;4068;42.158;24.732;2023-08-21T01:15:08;14.40;;;6.78;;
8050;SDS011;4068;42.158;24.732;2023-08-21T01:17:37;9.18;;;6.18;;
8050;SDS011;4068;42.158;24.732;2023-08-21T01:20:03;10.40;;;6.35;;
8050;SDS011;4068;42.158;24.732;2023-08-21T01:22:35;9.00;;;7.03;;
8050;SDS011;4068;42.158;24.732;2023-08-21T01:25:05;8.52;;;6.30;;
8050;SDS011;4068;42.158;24.732;2023-08-21T01:27:32;7.50;;;6.10;;
8050;SDS011;4068;42.158;24.732;2023-08-21T01:29:59;7.25;;;5.82;;
8050;SDS011;4068;42.158;24.732;2023-08-21T01:35:19;6.85;;;6.10;;
8050;SDS011;4068;42.158;24.732;2023-08-21T01:37:45;7.47;;;5.88;;
8050;SDS011;4068;42.158;24.732;2023-08-21T01:40:12;7.15;;;6.13;;
8050;SDS011;4068;42.158;24.732;2023-08-21T01:42:37;7.03;;;6.30;;
8050;SDS011;4068;42.158;24.732;2023-08-21T01:45:03;7.95;;;6.68;;
8050;SDS011;4068;42.158;24.732;2023-08-21T01:47:29;8.95;;;5.93;;
8050;SDS011;4068;42.158;24.732;2023-08-21T01:49:54;8.50;;;6.57;;
8050;SDS011;4068;42.158;24.732;2023-08-21T01:52:20;11.65;;;6.65;;
8050;SDS011;4068;42.158;24.732;2023-08-21T01:54:45;11.20;;;6.40;;
8050;SDS011;4068;42.158;24.732;2023-08-21T01:57:13;11.80;;;7.13;;
8050;SDS011;4068;42.158;24.732;2023-08-21T01:59:38;9.02;;;6.30;;
8050;SDS011;4068;42.158;24.732;2023-08-21T02:02:04;7.93;;;6.60;;
8050;SDS011;4068;42.158;24.732;2023-08-21T02:04:29;9.07;;;6.57;;
8050;SDS011;4068;42.158;24.732;2023-08-21T02:06:55;7.03;;;6.10;;
8050;SDS011;4068;42.158;24.732;2023-08-21T02:09:20;8.98;;;6.00;;
8050;SDS011;4068;42.158;24.732;2023-08-21T02:11:46;8.85;;;6.30;;
8050;SDS011;4068;42.158;24.732;2023-08-21T02:14:11;9.43;;;5.95;;
8050;SDS011;4068;42.158;24.732;2023-08-21T02:16:36;10.85;;;6.38;;
8050;SDS011;4068;42.158;24.732;2023-08-21T02:19:02;8.02;;;6.03;;
8050;SDS011;4068;42.158;24.732;2023-08-21T02:21:27;7.43;;;6.38;;
8050;SDS011;4068;42.158;24.732;2023-08-21T02:23:53;11.70;;;6.70;;
8050;SDS011;4068;42.158;24.732;2023-08-21T02:26:18;8.50;;;6.40;;
8050;SDS011;4068;42.158;24.732;2023-08-21T02:28:45;8.43;;;6.45;;
8050;SDS011;4068;42.158;24.732;2023-08-21T02:31:10;12.68;;;7.18;;
8050;SDS011;4068;42.158;24.732;2023-08-21T02:33:36;10.18;;;6.53;;
8050;SDS011;4068;42.158;24.732;2023-08-21T02:36:02;9.15;;;6.90;;
8050;SDS011;4068;42.158;24.732;2023-08-21T02:38:28;9.52;;;6.90;;
8050;SDS011;4068;42.158;24.732;2023-08-21T02:40:54;10.20;;;7.05;;
8050;SDS011;4068;42.158;24.732;2023-08-21T02:43:19;8.98;;;6.03;;
8050;SDS011;4068;42.158;24.732;2023-08-21T02:45:45;9.52;;;7.53;;
8050;SDS011;4068;42.158;24.732;2023-08-21T02:48:10;8.95;;;6.78;;
8050;SDS011;4068;42.158;24.732;2023-08-21T02:50:36;9.80;;;7.20;;
8050;SDS011;4068;42.158;24.732;2023-08-21T02:53:01;9.27;;;6.60;;
8050;SDS011;4068;42.158;24.732;2023-08-21T02:55:27;13.98;;;7.43;;
8050;SDS011;4068;42.158;24.732;2023-08-21T02:57:52;12.73;;;7.53;;
8050;SDS011;4068;42.158;24.732;2023-08-21T03:00:17;9.63;;;7.20;;
8050;SDS011;4068;42.158;24.732;2023-08-21T03:02:43;8.50;;;6.72;;
8050;SDS011;4068;42.158;24.732;2023-08-21T03:05:09;9.48;;;6.80;;
8050;SDS011;4068;42.158;24.732;2023-08-21T03:07:35;10.90;;;6.75;;
8050;SDS011;4068;42.158;24.732;2023-08-21T03:10:00;7.68;;;6.57;;
8050;SDS011;4068;42.158;24.732;2023-08-21T03:12:27;12.95;;;7.20;;
8050;SDS011;4068;42.158;24.732;2023-08-21T03:14:53;9.82;;;7.40;;
8050;SDS011;4068;42.158;24.732;2023-08-21T03:17:18;11.35;;;7.22;;
8050;SDS011;4068;42.158;24.732;2023-08-21T03:19:44;14.80;;;7.00;;
8050;SDS011;4068;42.158;24.732;2023-08-21T03:22:09;11.07;;;6.88;;
8050;SDS011;4068;42.158;24.732;2023-08-21T03:24:35;9.18;;;6.85;;
8050;SDS011;4068;42.158;24.732;2023-08-21T03:27:01;9.70;;;6.80;;
8050;SDS011;4068;42.158;24.732;2023-08-21T03:29:27;10.98;;;6.93;;
8050;SDS011;4068;42.158;24.732;2023-08-21T03:31:53;9.13;;;7.13;;
8050;SDS011;4068;42.158;24.732;2023-08-21T03:34:22;9.38;;;6.82;;
8050;SDS011;4068;42.158;24.732;2023-08-21T03:36:47;9.73;;;7.18;;
8050;SDS011;4068;42.158;24.732;2023-08-21T03:39:13;11.02;;;6.90;;
8050;SDS011;4068;42.158;24.732;2023-08-21T03:41:38;7.43;;;6.63;;
8050;SDS011;4068;42.158;24.732;2023-08-21T03:44:04;11.68;;;6.88;;
8050;SDS011;4068;42.158;24.732;2023-08-21T03:46:29;8.13;;;6.53;;
8050;SDS011;4068;42.158;24.732;2023-08-21T03:48:55;10.80;;;6.85;;
8050;SDS011;4068;42.158;24.732;2023-08-21T03:51:20;10.10;;;6.57;;
8050;SDS011;4068;42.158;24.732;2023-08-21T03:53:45;9.23;;;6.57;;
8050;SDS011;4068;42.158;24.732;2023-08-21T03:56:11;9.95;;;6.22;;
8050;SDS011;4068;42.158;24.732;2023-08-21T03:58:36;9.70;;;6.45;;
8050;SDS011;4068;42.158;24.732;2023-08-21T04:01:02;13.68;;;7.00;;
8050;SDS011;4068;42.158;24.732;2023-08-21T04:03:27;13.13;;;6.75;;
8050;SDS011;4068;42.158;24.732;2023-08-21T04:05:53;7.30;;;6.45;;
8050;SDS011;4068;42.158;24.732;2023-08-21T04:08:19;12.18;;;6.90;;
8050;SDS011;4068;42.158;24.732;2023-08-21T04:10:45;13.00;;;7.18;;
8050;SDS011;4068;42.158;24.732;2023-08-21T04:13:10;10.48;;;7.03;;
8050;SDS011;4068;42.158;24.732;2023-08-21T04:15:36;13.25;;;7.28;;
8050;SDS011;4068;42.158;24.732;2023-08-21T04:18:02;11.75;;;6.38;;
8050;SDS011;4068;42.158;24.732;2023-08-21T04:20:28;9.18;;;6.45;;
8050;SDS011;4068;42.158;24.732;2023-08-21T04:22:53;12.27;;;7.00;;
8050;SDS011;4068;42.158;24.732;2023-08-21T04:25:19;13.27;;;6.72;;
8050;SDS011;4068;42.158;24.732;2023-08-21T04:27:44;10.82;;;7.75;;
8050;SDS011;4068;42.158;24.732;2023-08-21T04:30:10;10.82;;;7.18;;
8050;SDS011;4068;42.158;24.732;2023-08-21T04:32:36;15.93;;;7.75;;
8050;SDS011;4068;42.158;24.732;2023-08-21T04:35:02;10.20;;;7.30;;
8050;SDS011;4068;42.158;24.732;2023-08-21T04:37:27;9.40;;;6.45;;
8050;SDS011;4068;42.158;24.732;2023-08-21T04:39:53;8.98;;;6.75;;
8050;SDS011;4068;42.158;24.732;2023-08-21T04:42:19;9.45;;;6.72;;
8050;SDS011;4068;42.158;24.732;2023-08-21T04:44:44;11.88;;;7.18;;
8050;SDS011;4068;42.158;24.732;2023-08-21T04:47:20;12.60;;;7.38;;
8050;SDS011;4068;42.158;24.732;2023-08-21T04:49:47;10.70;;;6.82;;
8050;SDS011;4068;42.158;24.732;2023-08-21T04:52:13;16.25;;;6.55;;
8050;SDS011;4068;42.158;24.732;2023-08-21T04:54:39;11.05;;;6.72;;
8050;SDS011;4068;42.158;24.732;2023-08-21T04:57:04;13.98;;;7.43;;
8050;SDS011;4068;42.158;24.732;2023-08-21T04:59:30;14.85;;;6.85;;
8050;SDS011;4068;42.158;24.732;2023-08-21T05:01:55;11.52;;;7.22;;
8050;SDS011;4068;42.158;24.732;2023-08-21T05:04:21;20.05;;;7.85;;
8050;SDS011;4068;42.158;24.732;2023-08-21T05:06:46;14.93;;;7.00;;
8050;SDS011;4068;42.158;24.732;2023-08-21T05:09:12;21.52;;;8.00;;
8050;SDS011;4068;42.158;24.732;2023-08-21T05:11:37;12.00;;;7.00;;
8050;SDS011;4068;42.158;24.732;2023-08-21T05:14:03;14.35;;;7.40;;
8050;SDS011;4068;42.158;24.732;2023-08-21T05:16:28;15.50;;;7.20;;
8050;SDS011;4068;42.158;24.732;2023-08-21T05:18:53;23.08;;;7.22;;
8050;SDS011;4068;42.158;24.732;2023-08-21T05:21:19;12.32;;;6.57;;
8050;SDS011;4068;42.158;24.732;2023-08-21T05:23:45;14.48;;;7.45;;
8050;SDS011;4068;42.158;24.732;2023-08-21T05:26:10;11.70;;;6.40;;
8050;SDS011;4068;42.158;24.732;2023-08-21T05:28:35;20.38;;;7.50;;
8050;SDS011;4068;42.158;24.732;2023-08-21T05:31:01;21.15;;;8.20;;
8050;SDS011;4068;42.158;24.732;2023-08-21T05:33:26;17.20;;;7.65;;
8050;SDS011;4068;42.158;24.732;2023-08-21T05:35:52;14.48;;;6.97;;
8050;SDS011;4068;42.158;24.732;2023-08-21T05:38:18;10.48;;;6.82;;
8050;SDS011;4068;42.158;24.732;2023-08-21T05:40:44;13.52;;;6.68;;
8050;SDS011;4068;42.158;24.732;2023-08-21T05:43:09;15.52;;;7.13;;
8050;SDS011;4068;42.158;24.732;2023-08-21T05:45:35;19.27;;;6.45;;
8050;SDS011;4068;42.158;24.732;2023-08-21T05:48:00;13.07;;;6.72;;
8050;SDS011;4068;42.158;24.732;2023-08-21T05:50:26;14.93;;;6.90;;
8050;SDS011;4068;42.158;24.732;2023-08-21T05:52:51;13.63;;;6.38;;
8050;SDS011;4068;42.158;24.732;2023-08-21T05:55:19;20.00;;;8.35;;
8050;SDS011;4068;42.158;24.732;2023-08-21T05:57:44;12.10;;;6.72;;
8050;SDS011;4068;42.158;24.732;2023-08-21T06:00:12;14.70;;;6.50;;
8050;SDS011;4068;42.158;24.732;2023-08-21T06:02:37;11.85;;;6.22;;
8050;SDS011;4068;42.158;24.732;2023-08-21T06:05:04;10.82;;;6.45;;
8050;SDS011;4068;42.158;24.732;2023-08-21T06:07:30;9.57;;;6.20;;
8050;SDS011;4068;42.158;24.732;2023-08-21T06:09:57;11.40;;;5.78;;
8050;SDS011;4068;42.158;24.732;2023-08-21T06:12:23;9.93;;;5.68;;
8050;SDS011;4068;42.158;24.732;2023-08-21T06:14:48;9.80;;;5.55;;
8050;SDS011;4068;42.158;24.732;2023-08-21T06:17:14;10.80;;;6.07;;
8050;SDS011;4068;42.158;24.732;2023-08-21T06:19:39;7.45;;;5.40;;
8050;SDS011;4068;42.158;24.732;2023-08-21T06:22:05;10.93;;;6.18;;
8050;SDS011;4068;42.158;24.732;2023-08-21T06:24:31;8.25;;;5.32;;
8050;SDS011;4068;42.158;24.732;2023-08-21T06:26:56;6.57;;;5.78;;
8050;SDS011;4068;42.158;24.732;2023-08-21T06:29:21;12.13;;;5.68;;
8050;SDS011;4068;42.158;24.732;2023-08-21T06:31:47;10.27;;;5.68;;
8050;SDS011;4068;42.158;24.732;2023-08-21T06:34:12;10.05;;;5.60;;
8050;SDS011;4068;42.158;24.732;2023-08-21T06:36:38;6.88;;;5.30;;
8050;SDS011;4068;42.158;24.732;2023-08-21T06:39:04;9.73;;;5.47;;
8050;SDS011;4068;42.158;24.732;2023-08-21T06:41:30;8.07;;;5.05;;
8050;SDS011;4068;42.158;24.732;2023-08-21T06:43:56;7.70;;;4.88;;
8050;SDS011;4068;42.158;24.732;2023-08-21T06:46:22;10.35;;;5.72;;
8050;SDS011;4068;42.158;24.732;2023-08-21T06:48:48;10.13;;;5.57;;
8050;SDS011;4068;42.158;24.732;2023-08-21T06:51:15;7.43;;;5.38;;
8050;SDS011;4068;42.158;24.732;2023-08-21T06:53:41;13.05;;;5.60;;
8050;SDS011;4068;42.158;24.732;2023-08-21T06:56:06;12.77;;;5.10;;
8050;SDS011;4068;42.158;24.732;2023-08-21T06:58:32;5.57;;;4.80;;
8050;SDS011;4068;42.158;24.732;2023-08-21T07:00:59;13.35;;;5.28;;
8050;SDS011;4068;42.158;24.732;2023-08-21T07:03:25;7.60;;;4.85;;
8050;SDS011;4068;42.158;24.732;2023-08-21T07:05:54;10.15;;;5.30;;
8050;SDS011;4068;42.158;24.732;2023-08-21T07:08:23;6.88;;;5.30;;
8050;SDS011;4068;42.158;24.732;2023-08-21T07:10:49;11.43;;;6.05;;
8050;SDS011;4068;42.158;24.732;2023-08-21T07:13:15;7.80;;;5.25;;
8050;SDS011;4068;42.158;24.732;2023-08-21T07:15:41;12.15;;;5.47;;
8050;SDS011;4068;42.158;24.732;2023-08-21T07:18:06;8.48;;;5.10;;
8050;SDS011;4068;42.158;24.732;2023-08-21T07:20:33;9.13;;;4.93;;
8050;SDS011;4068;42.158;24.732;2023-08-21T07:22:58;13.25;;;6.10;;
8050;SDS011;4068;42.158;24.732;2023-08-21T07:25:24;7.90;;;4.80;;
8050;SDS011;4068;42.158;24.732;2023-08-21T07:27:50;11.77;;;5.30;;
8050;SDS011;4068;42.158;24.732;2023-08-21T07:30:18;9.63;;;5.40;;
8050;SDS011;4068;42.158;24.732;2023-08-21T07:32:45;9.48;;;4.90;;
8050;SDS011;4068;42.158;24.732;2023-08-21T07:35:11;5.80;;;4.80;;
8050;SDS011;4068;42.158;24.732;2023-08-21T07:37:36;9.63;;;5.18;;
8050;SDS011;4068;42.158;24.732;2023-08-21T07:40:02;8.32;;;4.93;;
8050;SDS011;4068;42.158;24.732;2023-08-21T07:42:27;11.55;;;4.75;;
8050;SDS011;4068;42.158;24.732;2023-08-21T07:44:53;8.02;;;4.30;;
8050;SDS011;4068;42.158;24.732;2023-08-21T07:47:18;8.73;;;5.47;;
8050;SDS011;4068;42.158;24.732;2023-08-21T07:49:44;7.50;;;4.93;;
8050;SDS011;4068;42.158;24.732;2023-08-21T07:52:09;11.88;;;5.15;;
8050;SDS011;4068;42.158;24.732;2023-08-21T07:54:35;6.47;;;4.80;;
8050;SDS011;4068;42.158;24.732;2023-08-21T07:57:00;7.80;;;4.53;;
8050;SDS011;4068;42.158;24.732;2023-08-21T07:59:26;9.10;;;4.63;;
8050;SDS011;4068;42.158;24.732;2023-08-21T08:01:51;9.57;;;4.65;;
8050;SDS011;4068;42.158;24.732;2023-08-21T08:04:17;8.85;;;4.45;;
8050;SDS011;4068;42.158;24.732;2023-08-21T08:06:42;7.82;;;4.57;;
8050;SDS011;4068;42.158;24.732;2023-08-21T08:09:08;6.05;;;4.45;;
8050;SDS011;4068;42.158;24.732;2023-08-21T08:11:34;7.07;;;3.85;;
8050;SDS011;4068;42.158;24.732;2023-08-21T08:13:59;4.95;;;4.45;;
8050;SDS011;4068;42.158;24.732;2023-08-21T08:16:25;5.57;;;4.03;;
8050;SDS011;4068;42.158;24.732;2023-08-21T08:18:50;8.32;;;4.60;;
8050;SDS011;4068;42.158;24.732;2023-08-21T08:21:16;7.93;;;3.90;;
8050;SDS011;4068;42.158;24.732;2023-08-21T08:23:42;5.13;;;3.83;;
8050;SDS011;4068;42.158;24.732;2023-08-21T08:26:08;4.70;;;3.70;;
8050;SDS011;4068;42.158;24.732;2023-08-21T08:28:33;5.70;;;4.15;;
8050;SDS011;4068;42.158;24.732;2023-08-21T08:31:00;11.13;;;4.43;;
8050;SDS011;4068;42.158;24.732;2023-08-21T08:33:25;11.40;;;4.82;;
8050;SDS011;4068;42.158;24.732;2023-08-21T08:35:51;7.00;;;4.32;;
8050;SDS011;4068;42.158;24.732;2023-08-21T08:38:17;12.25;;;4.60;;
8050;SDS011;4068;42.158;24.732;2023-08-21T08:40:44;10.40;;;4.30;;
8050;SDS011;4068;42.158;24.732;2023-08-21T08:43:12;10.52;;;4.18;;
8050;SDS011;4068;42.158;24.732;2023-08-21T08:45:38;6.30;;;4.22;;
8050;SDS011;4068;42.158;24.732;2023-08-21T08:48:05;6.50;;;4.55;;
8050;SDS011;4068;42.158;24.732;2023-08-21T08:50:32;6.85;;;4.50;;
8050;SDS011;4068;42.158;24.732;2023-08-21T08:52:58;6.22;;;4.35;;
8050;SDS011;4068;42.158;24.732;2023-08-21T08:55:25;7.15;;;4.30;;
8050;SDS011;4068;42.158;24.732;2023-08-21T08:57:52;7.47;;;4.10;;
8050;SDS011;4068;42.158;24.732;2023-08-21T09:00:18;5.85;;;3.80;;
8050;SDS011;4068;42.158;24.732;2023-08-21T09:02:45;9.48;;;4.30;;
8050;SDS011;4068;42.158;24.732;2023-08-21T09:05:10;6.57;;;3.90;;
8050;SDS011;4068;42.158;24.732;2023-08-21T09:07:37;9.93;;;4.22;;
8050;SDS011;4068;42.158;24.732;2023-08-21T09:10:04;5.97;;;4.18;;
8050;SDS011;4068;42.158;24.732;2023-08-21T09:12:33;9.60;;;4.63;;
8050;SDS011;4068;42.158;24.732;2023-08-21T09:14:58;7.30;;;4.53;;
8050;SDS011;4068;42.158;24.732;2023-08-21T09:17:25;5.82;;;4.30;;
8050;SDS011;4068;42.158;24.732;2023-08-21T09:19:51;6.75;;;4.55;;
8050;SDS011;4068;42.158;24.732;2023-08-21T09:22:17;9.02;;;3.72;;
8050;SDS011;4068;42.158;24.732;2023-08-21T09:24:59;10.18;;;4.32;;
8050;SDS011;4068;42.158;24.732;2023-08-21T09:27:25;6.15;;;4.30;;
8050;SDS011;4068;42.158;24.732;2023-08-21T09:29:51;10.35;;;4.75;;
8050;SDS011;4068;42.158;24.732;2023-08-21T09:32:16;12.95;;;5.03;;
8050;SDS011;4068;42.158;24.732;2023-08-21T09:34:42;8.48;;;4.18;;
8050;SDS011;4068;42.158;24.732;2023-08-21T09:37:08;8.00;;;4.85;;
8050;SDS011;4068;42.158;24.732;2023-08-21T09:39:35;7.20;;;4.00;;
8050;SDS011;4068;42.158;24.732;2023-08-21T09:42:07;4.90;;;4.40;;
8050;SDS011;4068;42.158;24.732;2023-08-21T09:44:40;6.78;;;4.25;;
8050;SDS011;4068;42.158;24.732;2023-08-21T09:47:11;4.80;;;4.00;;
8050;SDS011;4068;42.158;24.732;2023-08-21T09:49:38;9.18;;;4.38;;
8050;SDS011;4068;42.158;24.732;2023-08-21T09:52:07;6.25;;;4.75;;
8050;SDS011;4068;42.158;24.732;2023-08-21T09:54:35;5.68;;;3.70;;
8050;SDS011;4068;42.158;24.732;2023-08-21T09:57:03;4.28;;;3.88;;
8050;SDS011;4068;42.158;24.732;2023-08-21T09:59:30;8.73;;;4.32;;
8050;SDS011;4068;42.158;24.732;2023-08-21T10:01:56;7.25;;;3.92;;
8050;SDS011;4068;42.158;24.732;2023-08-21T10:04:26;6.60;;;3.97;;
8050;SDS011;4068;42.158;24.732;2023-08-21T10:06:54;8.05;;;4.15;;
8050;SDS011;4068;42.158;24.732;2023-08-21T10:09:21;5.60;;;3.90;;
8050;SDS011;4068;42.158;24.732;2023-08-21T10:11:49;4.43;;;4.00;;
8050;SDS011;4068;42.158;24.732;2023-08-21T10:14:17;6.05;;;3.95;;
8050;SDS011;4068;42.158;24.732;2023-08-21T10:16:44;6.72;;;4.43;;
8050;SDS011;4068;42.158;24.732;2023-08-21T10:19:10;8.70;;;4.72;;
8050;SDS011;4068;42.158;24.732;2023-08-21T10:21:39;7.95;;;4.15;;
8050;SDS011;4068;42.158;24.732;2023-08-21T10:24:05;8.13;;;4.10;;
8050;SDS011;4068;42.158;24.732;2023-08-21T10:26:30;9.82;;;4.13;;
8050;SDS011;4068;42.158;24.732;2023-08-21T10:28:58;5.25;;;3.40;;
8050;SDS011;4068;42.158;24.732;2023-08-21T10:31:28;6.25;;;3.90;;
8050;SDS011;4068;42.158;24.732;2023-08-21T10:33:57;5.17;;;3.70;;
8050;SDS011;4068;42.158;24.732;2023-08-21T10:37:24;4.00;;;3.60;;
8050;SDS011;4068;42.158;24.732;2023-08-21T10:39:29;6.13;;;3.83;;
8050;SDS011;4068;42.158;24.732;2023-08-21T10:42:06;4.47;;;3.53;;
8050;SDS011;4068;42.158;24.732;2023-08-21T10:44:35;9.60;;;4.13;;
8050;SDS011;4068;42.158;24.732;2023-08-21T10:47:13;7.40;;;3.95;;
8050;SDS011;4068;42.158;24.732;2023-08-21T10:49:45;3.90;;;3.60;;
8050;SDS011;4068;42.158;24.732;2023-08-21T10:54:50;4.70;;;3.53;;
8050;SDS011;4068;42.158;24.732;2023-08-21T10:57:18;4.05;;;3.47;;
8050;SDS011;4068;42.158;24.732;2023-08-21T10:59:51;7.60;;;3.88;;
8050;SDS011;4068;42.158;24.732;2023-08-21T11:02:39;4.30;;;3.58;;
8050;SDS011;4068;42.158;24.732;2023-08-21T11:05:05;9.13;;;4.00;;
8050;SDS011;4068;42.158;24.732;2023-08-21T11:07:39;11.05;;;4.43;;
8050;SDS011;4068;42.158;24.732;2023-08-21T11:10:10;4.45;;;3.63;;
8050;SDS011;4068;42.158;24.732;2023-08-21T11:12:38;8.35;;;4.93;;
8050;SDS011;4068;42.158;24.732;2023-08-21T11:15:13;8.75;;;3.72;;
8050;SDS011;4068;42.158;24.732;2023-08-21T11:17:40;8.15;;;3.72;;
8050;SDS011;4068;42.158;24.732;2023-08-21T11:20:05;8.30;;;4.13;;
8050;SDS011;4068;42.158;24.732;2023-08-21T11:22:33;3.95;;;3.60;;
8050;SDS011;4068;42.158;24.732;2023-08-21T11:24:59;7.88;;;3.90;;
8050;SDS011;4068;42.158;24.732;2023-08-21T11:27:24;6.82;;;3.70;;
8050;SDS011;4068;42.158;24.732;2023-08-21T11:29:51;9.90;;;4.30;;
8050;SDS011;4068;42.158;24.732;2023-08-21T11:32:17;5.90;;;3.95;;
8050;SDS011;4068;42.158;24.732;2023-08-21T11:34:53;5.20;;;3.67;;
8050;SDS011;4068;42.158;24.732;2023-08-21T11:37:21;10.55;;;4.38;;
8050;SDS011;4068;42.158;24.732;2023-08-21T11:39:52;7.65;;;3.80;;
8050;SDS011;4068;42.158;24.732;2023-08-21T11:42:22;7.95;;;4.07;;
8050;SDS011;4068;42.158;24.732;2023-08-21T11:44:54;6.03;;;3.70;;
8050;SDS011;4068;42.158;24.732;2023-08-21T11:47:21;5.82;;;3.78;;
8050;SDS011;4068;42.158;24.732;2023-08-21T11:49:48;5.22;;;3.85;;
8050;SDS011;4068;42.158;24.732;2023-08-21T11:52:19;8.40;;;3.90;;
8050;SDS011;4068;42.158;24.732;2023-08-21T11:54:49;5.18;;;4.00;;
8050;SDS011;4068;42.158;24.732;2023-08-21T11:57:17;7.57;;;3.70;;
8050;SDS011;4068;42.158;24.732;2023-08-21T11:59:49;5.93;;;4.35;;
8050;SDS011;4068;42.158;24.732;2023-08-21T12:02:17;5.65;;;3.75;;
8050;SDS011;4068;42.158;24.732;2023-08-21T12:04:51;8.95;;;4.03;;
8050;SDS011;4068;42.158;24.732;2023-08-21T12:07:20;4.38;;;3.63;;
8050;SDS011;4068;42.158;24.732;2023-08-21T12:09:46;6.57;;;4.60;;
8050;SDS011;4068;42.158;24.732;2023-08-21T12:12:13;4.68;;;3.97;;
8050;SDS011;4068;42.158;24.732;2023-08-21T12:14:39;9.13;;;3.97;;
8050;SDS011;4068;42.158;24.732;2023-08-21T12:17:04;5.20;;;3.60;;
8050;SDS011;4068;42.158;24.732;2023-08-21T12:19:30;7.35;;;4.30;;
8050;SDS011;4068;42.158;24.732;2023-08-21T12:21:56;7.78;;;4.30;;
8050;SDS011;4068;42.158;24.732;2023-08-21T12:24:23;6.22;;;4.18;;
8050;SDS011;4068;42.158;24.732;2023-08-21T12:26:49;4.55;;;3.70;;
8050;SDS011;4068;42.158;24.732;2023-08-21T12:29:14;5.95;;;4.30;;
8050;SDS011;4068;42.158;24.732;2023-08-21T12:31:40;6.15;;;4.38;;
8050;SDS011;4068;42.158;24.732;2023-08-21T12:34:05;5.72;;;4.30;;
8050;SDS011;4068;42.158;24.732;2023-08-21T12:36:33;4.93;;;4.38;;
8050;SDS011;4068;42.158;24.732;2023-08-21T12:38:59;5.35;;;4.10;;
8050;SDS011;4068;42.158;24.732;2023-08-21T12:41:25;7.47;;;4.22;;
8050;SDS011;4068;42.158;24.732;2023-08-21T12:43:50;7.25;;;4.30;;
8050;SDS011;4068;42.158;24.732;2023-08-21T12:46:16;6.05;;;4.22;;
8050;SDS011;4068;42.158;24.732;2023-08-21T12:48:41;7.40;;;4.32;;
8050;SDS011;4068;42.158;24.732;2023-08-21T12:51:07;5.35;;;4.30;;
8050;SDS011;4068;42.158;24.732;2023-08-21T12:53:32;6.25;;;4.18;;
8050;SDS011;4068;42.158;24.732;2023-08-21T12:55:58;8.45;;;4.60;;
8050;SDS011;4068;42.158;24.732;2023-08-21T12:58:24;5.22;;;4.07;;
8050;SDS011;4068;42.158;24.732;2023-08-21T13:00:50;8.10;;;4.18;;
8050;SDS011;4068;42.158;24.732;2023-08-21T13:03:15;10.30;;;4.60;;
8050;SDS011;4068;42.158;24.732;2023-08-21T13:05:41;11.90;;;4.65;;
8050;SDS011;4068;42.158;24.732;2023-08-21T13:08:06;4.57;;;3.72;;
8050;SDS011;4068;42.158;24.732;2023-08-21T13:10:32;4.50;;;3.65;;
8050;SDS011;4068;42.158;24.732;2023-08-21T13:12:58;7.15;;;4.18;;
8050;SDS011;4068;42.158;24.732;2023-08-21T13:15:23;4.82;;;4.00;;
8050;SDS011;4068;42.158;24.732;2023-08-21T13:17:49;7.93;;;4.28;;
8050;SDS011;4068;42.158;24.732;2023-08-21T13:20:14;9.02;;;4.03;;
8050;SDS011;4068;42.158;24.732;2023-08-21T13:22:52;12.70;;;4.47;;
8050;SDS011;4068;42.158;24.732;2023-08-21T13:25:18;5.93;;;4.13;;
8050;SDS011;4068;42.158;24.732;2023-08-21T13:27:45;6.13;;;3.97;;
8050;SDS011;4068;42.158;24.732;2023-08-21T13:30:11;5.90;;;3.90;;
8050;SDS011;4068;42.158;24.732;2023-08-21T13:32:37;7.80;;;4.10;;
8050;SDS011;4068;42.158;24.732;2023-08-21T13:35:02;7.25;;;4.47;;
8050;SDS011;4068;42.158;24.732;2023-08-21T13:37:37;7.57;;;4.90;;
8050;SDS011;4068;42.158;24.732;2023-08-21T13:40:04;9.00;;;5.03;;
8050;SDS011;4068;42.158;24.732;2023-08-21T13:42:39;5.70;;;5.05;;
8050;SDS011;4068;42.158;24.732;2023-08-21T13:45:12;7.95;;;4.70;;
8050;SDS011;4068;42.158;24.732;2023-08-21T13:47:39;6.07;;;5.47;;
8050;SDS011;4068;42.158;24.732;2023-08-21T13:50:06;13.63;;;5.40;;
8050;SDS011;4068;42.158;24.732;2023-08-21T13:52:33;9.80;;;5.82;;
8050;SDS011;4068;42.158;24.732;2023-08-21T13:54:59;8.70;;;5.50;;
8050;SDS011;4068;42.158;24.732;2023-08-21T13:57:25;6.35;;;5.50;;
8050;SDS011;4068;42.158;24.732;2023-08-21T13:59:51;7.32;;;5.05;;
8050;SDS011;4068;42.158;24.732;2023-08-21T14:02:17;10.90;;;5.82;;
8050;SDS011;4068;42.158;24.732;2023-08-21T14:04:46;8.02;;;5.40;;
8050;SDS011;4068;42.158;24.732;2023-08-21T14:07:11;7.55;;;4.85;;
8050;SDS011;4068;42.158;24.732;2023-08-21T14:09:38;5.30;;;4.80;;
8050;SDS011;4068;42.158;24.732;2023-08-21T14:12:04;9.35;;;5.45;;
8050;SDS011;4068;42.158;24.732;2023-08-21T14:14:30;6.22;;;4.80;;
8050;SDS011;4068;42.158;24.732;2023-08-21T14:16:55;6.70;;;5.15;;
8050;SDS011;4068;42.158;24.732;2023-08-21T14:19:21;11.80;;;5.25;;
8050;SDS011;4068;42.158;24.732;2023-08-21T14:21:46;8.73;;;4.93;;
8050;SDS011;4068;42.158;24.732;2023-08-21T14:24:12;7.60;;;5.20;;
8050;SDS011;4068;42.158;24.732;2023-08-21T14:26:37;12.80;;;5.20;;
8050;SDS011;4068;42.158;24.732;2023-08-21T14:29:04;7.85;;;4.65;;
8050;SDS011;4068;42.158;24.732;2023-08-21T14:31:30;9.77;;;5.10;;
8050;SDS011;4068;42.158;24.732;2023-08-21T14:33:56;4.53;;;4.00;;
8050;SDS011;4068;42.158;24.732;2023-08-21T14:36:21;10.32;;;4.85;;
8050;SDS011;4068;42.158;24.732;2023-08-21T14:38:47;6.97;;;5.18;;
8050;SDS011;4068;42.158;24.732;2023-08-21T14:41:12;13.57;;;5.72;;
8050;SDS011;4068;42.158;24.732;2023-08-21T14:43:38;9.07;;;4.97;;
8050;SDS011;4068;42.158;24.732;2023-08-21T14:46:03;7.18;;;4.35;;
8050;SDS011;4068;42.158;24.732;2023-08-21T14:48:29;11.82;;;4.28;;
8050;SDS011;4068;42.158;24.732;2023-08-21T14:50:54;9.57;;;4.80;;
8050;SDS011;4068;42.158;24.732;2023-08-21T14:53:20;8.00;;;4.75;;
8050;SDS011;4068;42.158;24.732;2023-08-21T14:55:45;11.05;;;5.40;;
8050;SDS011;4068;42.158;24.732;2023-08-21T14:58:11;10.15;;;5.03;;
8050;SDS011;4068;42.158;24.732;2023-08-21T15:00:36;9.70;;;4.97;;
8050;SDS011;4068;42.158;24.732;2023-08-21T15:03:02;12.38;;;5.55;;